createdAt,value
2022-09-06T00:01:33.023Z,3.97
2022-09-06T00:04:01.403Z,4.40
2022-09-06T00:06:29.823Z,4.28
2022-09-06T00:08:58.300Z,4.20
2022-09-06T00:11:26.656Z,4.50
2022-09-06T00:13:56.433Z,3.83
2022-09-06T00:16:30.186Z,3.95
2022-09-06T00:18:59.461Z,4.05
2022-09-06T00:21:29.591Z,3.80
2022-09-06T00:23:58.278Z,3.90
2022-09-06T00:26:26.724Z,4.50
2022-09-06T00:28:56.442Z,4.22
2022-09-06T00:31:26.042Z,4.13
2022-09-06T00:33:54.880Z,3.95
2022-09-06T00:36:23.783Z,3.70
2022-09-06T00:38:52.168Z,3.63
2022-09-06T00:41:20.625Z,3.88
2022-09-06T00:43:48.984Z,4.38
2022-09-06T00:46:20.188Z,4.10
2022-09-06T00:48:52.127Z,3.90
2022-09-06T00:51:21.303Z,3.75
2022-09-06T00:53:50.076Z,3.92
2022-09-06T00:56:18.509Z,3.97
2022-09-06T00:58:47.153Z,4.20
2022-09-06T01:01:15.749Z,3.92
2022-09-06T01:03:45.688Z,4.80
2022-09-06T01:06:24.592Z,4.43
2022-09-06T01:08:59.374Z,4.63
2022-09-06T01:11:45.408Z,4.15
2022-09-06T01:14:21.580Z,4.35
2022-09-06T01:16:53.838Z,4.20
2022-09-06T01:19:46.061Z,4.35
2022-09-06T01:22:22.077Z,4.43
2022-09-06T01:25:03.633Z,4.28
2022-09-06T01:27:48.815Z,4.50
2022-09-06T01:30:18.805Z,5.15
2022-09-06T01:32:52.215Z,4.78
2022-09-06T01:35:25.852Z,4.45
2022-09-06T01:37:54.679Z,5.07
2022-09-06T01:40:23.125Z,4.53
2022-09-06T01:42:54.380Z,4.50
2022-09-06T01:45:25.192Z,4.55
2022-09-06T01:48:00.963Z,4.88
2022-09-06T01:50:36.885Z,4.80
2022-09-06T01:53:11.177Z,5.55
2022-09-06T01:55:45.860Z,4.60
2022-09-06T01:58:34.949Z,4.57
2022-09-06T02:01:06.965Z,4.35
2022-09-06T02:03:38.084Z,4.10
2022-09-06T02:06:09.057Z,4.88
2022-09-06T02:08:39.967Z,4.65
2022-09-06T02:11:09.448Z,5.22
2022-09-06T02:13:40.466Z,4.70
2022-09-06T02:16:12.312Z,4.57
2022-09-06T02:18:42.677Z,4.95
2022-09-06T02:21:12.673Z,4.57
2022-09-06T02:23:41.693Z,4.80
2022-09-06T02:26:13.184Z,4.90
2022-09-06T02:28:41.849Z,4.45
2022-09-06T02:31:14.175Z,4.70
2022-09-06T02:33:43.432Z,4.13
2022-09-06T02:36:11.863Z,4.53
2022-09-06T02:38:41.916Z,4.55
2022-09-06T02:41:10.829Z,4.75
2022-09-06T02:43:39.205Z,4.90
2022-09-06T02:46:07.675Z,5.15
2022-09-06T02:48:37.472Z,5.20
2022-09-06T02:51:06.183Z,4.55
2022-09-06T02:53:34.845Z,4.78
2022-09-06T02:56:03.442Z,4.97
2022-09-06T02:58:31.837Z,4.60
2022-09-06T03:01:00.276Z,4.38
2022-09-06T03:03:29.321Z,4.40
2022-09-06T03:05:59.081Z,5.22
2022-09-06T03:08:33.273Z,4.95
2022-09-06T03:11:02.160Z,5.50
2022-09-06T03:13:30.605Z,5.30
2022-09-06T03:15:59.684Z,5.45
2022-09-06T03:18:28.926Z,5.10
2022-09-06T03:20:59.335Z,5.35
2022-09-06T03:23:28.476Z,5.38
2022-09-06T03:25:57.079Z,5.30
2022-09-06T03:28:25.759Z,4.72
2022-09-06T03:30:54.562Z,5.05
2022-09-06T03:33:22.966Z,5.28
2022-09-06T03:35:51.985Z,5.43
2022-09-06T03:38:22.223Z,4.78
2022-09-06T03:40:51.517Z,5.20
2022-09-06T03:43:19.931Z,5.38
2022-09-06T03:45:48.791Z,5.13
2022-09-06T03:48:17.855Z,5.28
2022-09-06T03:50:47.305Z,5.30
2022-09-06T03:53:15.795Z,5.28
2022-09-06T03:55:47.724Z,5.65
2022-09-06T03:58:16.681Z,5.53
2022-09-06T04:00:45.406Z,5.15
2022-09-06T04:03:14.166Z,4.85
2022-09-06T04:05:42.817Z,4.95
2022-09-06T04:08:11.512Z,5.65
2022-09-06T04:10:39.985Z,5.13
2022-09-06T04:13:09.780Z,5.18
2022-09-06T04:15:38.181Z,5.10
2022-09-06T04:18:09.228Z,5.60
2022-09-06T04:20:37.907Z,5.00
2022-09-06T04:23:06.540Z,4.95
2022-09-06T04:25:34.994Z,4.68
2022-09-06T04:28:03.673Z,4.82
2022-09-06T04:30:33.678Z,5.20
2022-09-06T04:33:02.077Z,5.15
2022-09-06T04:35:30.484Z,5.10
2022-09-06T04:38:02.035Z,5.10
2022-09-06T04:40:30.421Z,5.20
2022-09-06T04:42:58.762Z,6.05
2022-09-06T04:45:27.241Z,5.50
2022-09-06T04:47:57.003Z,5.00
2022-09-06T04:50:25.381Z,4.80
2022-09-06T04:52:53.721Z,5.30
2022-09-06T04:55:22.399Z,5.20
2022-09-06T04:57:51.384Z,5.75
2022-09-06T05:00:20.034Z,5.78
2022-09-06T05:02:48.554Z,4.93
2022-09-06T05:05:18.641Z,5.43
2022-09-06T05:07:47.038Z,4.97
2022-09-06T05:10:15.478Z,4.38
2022-09-06T05:12:44.480Z,4.63
2022-09-06T05:15:13.145Z,4.78
2022-09-06T05:17:41.524Z,4.70
2022-09-06T05:20:11.016Z,4.40
2022-09-06T05:22:40.812Z,3.92
2022-09-06T05:25:09.508Z,4.30
2022-09-06T05:27:38.037Z,4.03
2022-09-06T05:30:06.673Z,4.60
2022-09-06T05:32:35.047Z,4.28
2022-09-06T05:35:03.423Z,4.55
2022-09-06T05:37:31.821Z,4.05
2022-09-06T05:40:01.880Z,3.97
2022-09-06T05:42:30.366Z,4.07
2022-09-06T05:44:58.766Z,3.88
2022-09-06T05:47:27.137Z,3.53
2022-09-06T05:49:55.655Z,3.75
2022-09-06T05:52:24.105Z,3.70
2022-09-06T05:54:52.465Z,3.78
2022-09-06T05:57:22.245Z,3.63
2022-09-06T05:59:50.640Z,3.20
2022-09-06T06:02:19.070Z,3.47
2022-09-06T06:04:47.624Z,2.67
2022-09-06T06:07:16.072Z,2.60
2022-09-06T06:09:44.473Z,2.60
2022-09-06T06:12:12.867Z,2.40
2022-09-06T06:14:42.601Z,2.42
2022-09-06T06:17:10.994Z,2.80
2022-09-06T06:19:40.131Z,2.50
2022-09-06T06:22:08.504Z,2.42
2022-09-06T06:24:37.040Z,2.35
2022-09-06T06:27:05.527Z,2.50
2022-09-06T06:29:33.924Z,2.35
2022-09-06T06:32:03.865Z,2.20
2022-09-06T06:34:32.267Z,2.25
2022-09-06T06:37:00.687Z,2.53
2022-09-06T06:39:29.255Z,2.70
2022-09-06T06:41:57.686Z,2.47
2022-09-06T06:44:27.389Z,2.42
2022-09-06T06:46:57.887Z,2.55
2022-09-06T06:49:28.436Z,2.38
2022-09-06T06:51:56.795Z,2.40
2022-09-06T06:54:25.172Z,2.55
2022-09-06T06:56:53.563Z,2.20
2022-09-06T06:59:21.904Z,2.40
2022-09-06T07:01:50.691Z,2.58
2022-09-06T07:04:19.196Z,2.50
2022-09-06T07:12:27.246Z,2.30
2022-09-06T07:14:55.657Z,1.90
2022-09-06T07:17:24.055Z,2.45
2022-09-06T07:22:42.467Z,2.28
2022-09-06T07:25:12.182Z,2.53
2022-09-06T07:27:49.324Z,2.15
2022-09-06T07:30:19.639Z,2.45
2022-09-06T07:32:48.186Z,2.20
2022-09-06T07:35:16.699Z,2.00
2022-09-06T07:37:53.080Z,2.42
2022-09-06T07:40:21.608Z,2.40
2022-09-06T07:42:50.074Z,2.30
2022-09-06T07:45:18.698Z,2.15
2022-09-06T07:48:02.396Z,2.22
2022-09-06T07:50:48.406Z,2.45
2022-09-06T07:53:26.317Z,2.20
2022-09-06T07:55:59.191Z,2.50
2022-09-06T07:58:27.615Z,2.10
2022-09-06T08:00:56.021Z,2.55
2022-09-06T08:03:24.767Z,2.10
2022-09-06T08:06:08.555Z,2.58
2022-09-06T08:11:28.481Z,2.10
2022-09-06T08:13:57.851Z,2.10
2022-09-06T08:16:27.968Z,2.20
2022-09-06T08:18:57.357Z,1.88
2022-09-06T08:21:26.589Z,2.00
2022-09-06T08:23:57.089Z,2.03
2022-09-06T08:26:26.119Z,1.75
2022-09-06T08:28:55.955Z,1.75
2022-09-06T08:31:24.378Z,2.20
2022-09-06T08:33:53.453Z,2.15
2022-09-06T08:36:21.851Z,2.05
2022-09-06T08:38:50.352Z,1.98
2022-09-06T08:41:25.707Z,2.08
2022-09-06T08:46:48.007Z,2.03
2022-09-06T08:49:16.464Z,1.92
2022-09-06T08:52:01.225Z,1.90
2022-09-06T08:54:33.575Z,2.30
2022-09-06T08:57:05.876Z,2.00
2022-09-06T08:59:38.247Z,2.15
2022-09-06T09:02:12.013Z,2.22
2022-09-06T09:04:42.978Z,2.47
2022-09-06T09:07:25.353Z,2.35
2022-09-06T09:09:54.333Z,2.30
2022-09-06T09:12:25.275Z,2.70
2022-09-06T09:14:55.488Z,2.97
2022-09-06T09:17:26.644Z,2.47
2022-09-06T09:19:54.997Z,2.47
2022-09-06T09:22:24.291Z,2.75
2022-09-06T09:24:53.352Z,2.92
2022-09-06T09:27:23.036Z,2.90
2022-09-06T09:32:51.829Z,3.00
2022-09-06T09:35:23.420Z,3.05
2022-09-06T09:38:04.921Z,3.00
2022-09-06T09:40:39.820Z,3.20
2022-09-06T09:43:14.700Z,3.17
2022-09-06T09:45:45.278Z,2.78
2022-09-06T09:48:20.214Z,2.55
2022-09-06T09:50:48.675Z,2.95
2022-09-06T09:53:17.966Z,3.25
2022-09-06T09:55:47.059Z,3.47
2022-09-06T09:58:22.956Z,2.95
2022-09-06T10:01:10.643Z,3.88
2022-09-06T10:09:19.181Z,2.50
2022-09-06T10:11:54.297Z,2.40
2022-09-06T10:14:28.304Z,3.15
2022-09-06T10:16:58.632Z,2.75
2022-09-06T10:19:46.881Z,3.03
2022-09-06T10:22:23.366Z,2.63
2022-09-06T10:25:06.884Z,2.53
2022-09-06T10:27:36.069Z,2.85
2022-09-06T10:30:09.824Z,2.83
2022-09-06T10:32:43.007Z,3.10
2022-09-06T10:35:16.320Z,2.88
2022-09-06T10:37:51.193Z,2.90
2022-09-06T10:40:27.330Z,3.60
2022-09-06T10:42:59.174Z,3.13
2022-09-06T10:45:34.206Z,3.53
2022-09-06T10:48:12.581Z,2.95
2022-09-06T10:50:46.126Z,3.63
2022-09-06T10:53:18.348Z,3.47
2022-09-06T10:55:48.119Z,3.22
2022-09-06T10:58:20.230Z,2.97
2022-09-06T11:00:49.604Z,3.25
2022-09-06T11:06:16.438Z,3.53
2022-09-06T11:08:50.374Z,3.53
2022-09-06T11:11:23.251Z,3.53
2022-09-06T11:13:51.975Z,2.90
2022-09-06T11:16:22.672Z,3.33
2022-09-06T11:18:55.813Z,3.40
2022-09-06T11:21:35.649Z,3.80
2022-09-06T11:24:11.671Z,3.53
2022-09-06T11:26:44.763Z,3.22
2022-09-06T11:29:19.406Z,3.13
2022-09-06T11:34:45.744Z,3.63
2022-09-06T11:37:27.913Z,3.25
2022-09-06T11:43:14.359Z,3.30
2022-09-06T11:45:44.577Z,3.90
2022-09-06T11:48:34.415Z,3.17
2022-09-06T11:51:07.588Z,3.80
2022-09-06T11:53:37.518Z,4.00
2022-09-06T11:56:12.801Z,2.85
2022-09-06T11:58:48.529Z,3.13
2022-09-06T12:01:36.966Z,3.30
2022-09-06T12:04:08.616Z,3.22
2022-09-06T12:06:40.786Z,3.38
2022-09-06T12:09:29.971Z,4.30
2022-09-06T12:11:58.831Z,3.20
2022-09-06T12:14:32.499Z,3.63
2022-09-06T12:17:28.672Z,3.42
2022-09-06T12:20:04.959Z,3.22
2022-09-06T12:23:09.952Z,3.05
2022-09-06T12:25:56.152Z,3.20
2022-09-06T12:28:27.535Z,3.03
2022-09-06T12:30:56.186Z,3.38
2022-09-06T12:33:27.190Z,3.25
2022-09-06T12:38:29.433Z,3.60
2022-09-06T12:41:01.168Z,3.05
2022-09-06T12:43:31.102Z,3.25
2022-09-06T12:46:01.142Z,3.38
2022-09-06T12:48:30.884Z,3.33
2022-09-06T12:51:03.537Z,3.00
2022-09-06T12:53:31.895Z,2.95
2022-09-06T12:56:09.118Z,3.15
2022-09-06T12:58:38.744Z,2.92
2022-09-06T13:01:10.827Z,3.10
2022-09-06T13:03:42.206Z,2.90
2022-09-06T13:06:24.476Z,3.05
2022-09-06T13:08:53.989Z,3.20
2022-09-06T13:11:25.399Z,3.60
2022-09-06T13:13:54.583Z,3.70
2022-09-06T13:16:24.201Z,3.80
2022-09-06T13:18:52.732Z,3.45
2022-09-06T13:21:28.659Z,3.67
2022-09-06T13:23:59.126Z,3.90
2022-09-06T13:26:36.117Z,4.00
2022-09-06T13:29:14.359Z,4.40
2022-09-06T13:31:46.744Z,3.83
2022-09-06T13:34:21.536Z,3.90
2022-09-06T13:36:52.372Z,4.13
2022-09-06T13:39:34.668Z,3.00
2022-09-06T13:42:05.838Z,3.10
2022-09-06T13:44:35.632Z,3.17
2022-09-06T13:47:04.044Z,3.03
2022-09-06T13:49:32.509Z,3.00
2022-09-06T13:52:02.023Z,3.42
2022-09-06T13:54:31.051Z,2.50
2022-09-06T13:57:00.645Z,2.70
2022-09-06T13:59:31.506Z,3.10
2022-09-06T14:02:02.742Z,3.13
2022-09-06T14:04:31.938Z,3.03
2022-09-06T14:07:00.488Z,3.03
2022-09-06T14:09:29.359Z,2.72
2022-09-06T14:12:33.421Z,3.10
2022-09-06T14:15:03.216Z,3.30
2022-09-06T14:17:32.860Z,2.90
2022-09-06T14:20:01.342Z,2.97
2022-09-06T14:22:29.746Z,2.85
2022-09-06T14:24:58.152Z,2.17
2022-09-06T14:27:26.600Z,2.38
2022-09-06T14:29:54.963Z,1.90
2022-09-06T14:32:26.753Z,2.55
2022-09-06T14:34:55.142Z,2.65
2022-09-06T14:37:23.590Z,2.47
2022-09-06T14:40:25.965Z,2.17
2022-09-06T14:42:54.389Z,2.20
2022-09-06T14:45:22.774Z,2.10
2022-09-06T14:47:52.558Z,2.42
2022-09-06T14:50:21.066Z,2.33
2022-09-06T14:52:49.544Z,2.30
2022-09-06T14:55:18.013Z,2.53
2022-09-06T14:57:47.081Z,2.40
2022-09-06T15:00:15.902Z,2.58
2022-09-06T15:02:45.405Z,2.83
2022-09-06T15:05:15.176Z,2.40
2022-09-06T15:07:43.573Z,2.60
2022-09-06T15:10:11.997Z,2.63
2022-09-06T15:12:40.383Z,2.20
2022-09-06T15:15:09.233Z,2.42
2022-09-06T15:17:37.629Z,2.25
2022-09-06T15:20:06.609Z,2.25
2022-09-06T15:22:36.621Z,1.98
2022-09-06T15:25:05.091Z,2.22
2022-09-06T15:27:33.565Z,3.03
2022-09-06T15:30:02.015Z,2.17
2022-09-06T15:32:30.476Z,2.47
2022-09-06T15:35:04.273Z,2.40
2022-09-06T15:37:33.127Z,2.42
2022-09-06T15:40:03.036Z,2.30
2022-09-06T15:42:31.775Z,2.42
2022-09-06T15:45:00.196Z,2.08
2022-09-06T15:47:29.176Z,2.30
2022-09-06T15:49:57.615Z,2.10
2022-09-06T15:52:26.022Z,3.05
2022-09-06T15:55:12.213Z,2.22
2022-09-06T15:57:42.115Z,2.30
2022-09-06T16:00:11.674Z,2.85
2022-09-06T16:02:40.171Z,2.20
2022-09-06T16:05:08.871Z,2.30
2022-09-06T16:07:41.024Z,2.30
2022-09-06T16:10:11.524Z,2.30
2022-09-06T16:12:39.906Z,2.50
2022-09-06T16:15:10.369Z,2.40
2022-09-06T16:17:39.154Z,3.15
2022-09-06T16:20:08.034Z,3.15
2022-09-06T16:22:36.442Z,3.03
2022-09-06T16:25:04.921Z,2.65
2022-09-06T16:27:33.598Z,2.28
2022-09-06T16:30:02.590Z,2.67
2022-09-06T16:32:32.359Z,2.55
2022-09-06T16:35:01.331Z,2.80
2022-09-06T16:37:30.316Z,2.75
2022-09-06T16:39:58.825Z,2.67
2022-09-06T16:42:27.357Z,2.65
2022-09-06T16:44:56.120Z,2.60
2022-09-06T16:47:24.540Z,2.72
2022-09-06T16:49:54.763Z,2.80
2022-09-06T16:52:23.167Z,2.65
2022-09-06T16:54:51.568Z,2.80
2022-09-06T16:57:19.960Z,2.60
2022-09-06T16:59:48.920Z,2.75
2022-09-06T17:02:18.230Z,3.10
2022-09-06T17:04:46.672Z,2.30
2022-09-06T17:07:17.846Z,2.72
2022-09-06T17:09:46.808Z,2.70
2022-09-06T17:12:15.237Z,2.50
2022-09-06T17:14:43.683Z,3.30
2022-09-06T17:17:11.064Z,3.70
2022-09-06T17:19:41.213Z,2.58
2022-09-06T17:22:10.105Z,3.00
2022-09-06T17:24:40.557Z,2.50
2022-09-06T17:27:09.266Z,2.55
2022-09-06T17:29:39.920Z,3.10
2022-09-06T17:32:10.297Z,3.05
2022-09-06T17:34:39.059Z,2.80
2022-09-06T17:37:08.211Z,3.00
2022-09-06T17:39:36.744Z,2.78
2022-09-06T17:42:07.157Z,3.00
2022-09-06T17:44:35.574Z,2.75
2022-09-06T17:47:13.495Z,2.90
2022-09-06T17:49:42.531Z,2.78
2022-09-06T17:52:10.958Z,2.80
2022-09-06T17:54:39.372Z,2.95
2022-09-06T17:57:09.212Z,3.30
2022-09-06T17:59:38.544Z,2.97
2022-09-06T18:02:07.050Z,3.08
2022-09-06T18:04:35.517Z,3.13
2022-09-06T18:07:04.194Z,3.03
2022-09-06T18:09:32.574Z,3.00
2022-09-06T18:12:01.049Z,3.42
2022-09-06T18:14:31.026Z,3.10
2022-09-06T18:16:59.616Z,2.70
2022-09-06T18:19:28.528Z,2.80
2022-09-06T18:21:57.761Z,3.10
2022-09-06T18:24:27.113Z,3.13
2022-09-06T18:26:55.635Z,3.90
2022-09-06T18:29:24.145Z,3.83
2022-09-06T18:31:54.559Z,3.53
2022-09-06T18:34:23.355Z,3.67
2022-09-06T18:36:51.817Z,6.50
2022-09-06T18:39:20.412Z,4.80
2022-09-06T18:42:02.721Z,3.55
2022-09-06T18:44:32.745Z,4.40
2022-09-06T18:47:03.581Z,3.25
2022-09-06T18:49:32.568Z,3.70
2022-09-06T18:52:01.283Z,4.28
2022-09-06T18:54:29.788Z,3.70
2022-09-06T18:56:58.453Z,3.85
2022-09-06T18:59:26.911Z,4.07
2022-09-06T19:01:55.695Z,3.53
2022-09-06T19:04:25.683Z,3.97
2022-09-06T19:06:54.149Z,3.65
2022-09-06T19:09:23.233Z,3.40
2022-09-06T19:11:53.156Z,3.40
2022-09-06T19:14:21.865Z,3.33
2022-09-06T19:16:51.724Z,3.85
2022-09-06T19:19:21.745Z,3.33
2022-09-06T19:21:51.718Z,3.58
2022-09-06T19:24:22.618Z,4.00
2022-09-06T19:26:51.501Z,3.40
2022-09-06T19:29:20.678Z,3.30
2022-09-06T19:31:49.591Z,3.28
2022-09-06T19:34:18.241Z,3.38
2022-09-06T19:36:46.984Z,2.88
2022-09-06T19:39:17.741Z,3.03
2022-09-06T19:41:47.553Z,3.47
2022-09-06T19:44:16.600Z,2.78
2022-09-06T19:46:47.023Z,3.10
2022-09-06T19:49:17.706Z,3.30
2022-09-06T19:51:46.595Z,3.63
2022-09-06T19:54:15.751Z,3.25
2022-09-06T19:56:45.931Z,3.75
2022-09-06T19:59:15.235Z,3.88
2022-09-06T20:01:44.507Z,3.58
2022-09-06T20:04:13.796Z,3.00
2022-09-06T20:06:42.493Z,3.13
2022-09-06T20:09:11.873Z,3.30
2022-09-06T20:11:40.770Z,3.22
2022-09-06T20:14:10.976Z,3.10
2022-09-06T20:16:41.898Z,3.20
2022-09-06T20:19:11.232Z,2.72
2022-09-06T20:21:39.601Z,3.35
2022-09-06T20:24:08.193Z,4.30
2022-09-06T20:26:36.603Z,3.65
2022-09-06T20:29:06.630Z,3.40
2022-09-06T20:31:37.716Z,3.53
2022-09-06T20:34:06.722Z,3.30
2022-09-06T20:36:35.241Z,3.17
2022-09-06T20:39:03.676Z,3.17
2022-09-06T20:41:32.070Z,3.38
2022-09-06T20:44:01.186Z,3.05
2022-09-06T20:46:30.935Z,3.42
2022-09-06T20:49:04.663Z,3.50
2022-09-06T20:51:33.808Z,3.50
2022-09-06T20:54:02.802Z,3.33
2022-09-06T20:56:33.213Z,3.78
2022-09-06T20:59:02.719Z,3.55
2022-09-06T21:01:31.993Z,3.38
2022-09-06T21:04:02.529Z,3.15
2022-09-06T21:06:33.740Z,3.58
2022-09-06T21:09:02.244Z,3.45
2022-09-06T21:11:30.653Z,3.22
2022-09-06T21:13:59.374Z,2.85
2022-09-06T21:16:29.075Z,3.22
2022-09-06T21:18:58.086Z,3.40
2022-09-06T21:21:28.804Z,3.22
2022-09-06T21:23:57.279Z,3.03
2022-09-06T21:26:25.720Z,3.10
2022-09-06T21:28:54.493Z,3.05
2022-09-06T21:31:23.635Z,2.80
2022-09-06T21:33:53.699Z,3.58
2022-09-06T21:36:23.338Z,2.80
2022-09-06T21:38:55.447Z,2.95
2022-09-06T21:41:24.464Z,2.83
2022-09-06T21:43:53.764Z,2.97
2022-09-06T21:46:23.044Z,3.38
2022-09-06T21:48:52.245Z,2.85
2022-09-06T21:51:22.703Z,3.30
2022-09-06T21:53:51.925Z,2.53
2022-09-06T21:56:23.811Z,3.13
2022-09-06T21:58:52.895Z,3.08
2022-09-06T22:01:21.561Z,3.30
2022-09-06T22:03:50.013Z,3.00
2022-09-06T22:06:19.281Z,2.78
2022-09-06T22:08:48.372Z,2.33
2022-09-06T22:11:17.904Z,2.40
2022-09-06T22:13:48.047Z,2.95
2022-09-06T22:16:17.603Z,2.80
2022-09-06T22:18:46.317Z,2.67
2022-09-06T22:21:18.445Z,2.65
2022-09-06T22:23:50.963Z,2.70
2022-09-06T22:26:20.083Z,2.42
2022-09-06T22:28:50.081Z,2.60
2022-09-06T22:31:18.554Z,2.45
2022-09-06T22:33:47.080Z,3.13
2022-09-06T22:36:15.470Z,2.90
2022-09-06T22:38:43.909Z,3.65
2022-09-06T22:41:12.360Z,2.90
2022-09-06T22:43:41.032Z,2.83
2022-09-06T22:46:12.697Z,2.72
2022-09-06T22:48:41.185Z,2.92
2022-09-06T22:51:09.650Z,3.20
2022-09-06T22:53:38.049Z,2.70
2022-09-06T22:56:06.613Z,3.10
2022-09-06T22:58:36.235Z,2.92
2022-09-06T23:01:09.117Z,3.05
2022-09-06T23:03:39.029Z,3.20
2022-09-06T23:06:07.499Z,3.00
2022-09-06T23:08:36.525Z,3.35
2022-09-06T23:11:06.824Z,3.20
2022-09-06T23:13:35.491Z,2.92
2022-09-06T23:16:04.296Z,3.22
2022-09-06T23:18:32.749Z,3.53
2022-09-06T23:21:06.826Z,3.35
2022-09-06T23:23:35.393Z,3.70
2022-09-06T23:26:10.490Z,3.42
2022-09-06T23:28:39.500Z,3.13
2022-09-06T23:31:08.646Z,3.65
2022-09-06T23:33:37.522Z,3.88
2022-09-06T23:36:07.897Z,3.65
2022-09-06T23:38:37.016Z,3.40
2022-09-06T23:41:05.871Z,3.40
2022-09-06T23:43:34.444Z,3.78
2022-09-06T23:46:03.239Z,3.40
2022-09-06T23:48:31.735Z,3.58
2022-09-06T23:51:00.248Z,3.40
2022-09-06T23:53:30.464Z,3.67
2022-09-06T23:55:58.863Z,3.45
2022-09-06T23:58:27.517Z,3.85
